sensor_id;sensor_type;location;lat;lon;timestamp;pressure;altitude;pressure_sealevel;temperature;humidity
71621;BME280;59471;42.254;23.102;2023-09-07T00:01:30;96177.63;;;20.09;69.02
71621;BME280;59471;42.254;23.102;2023-09-07T00:03:56;96177.19;;;20.12;68.44
71621;BME280;59471;42.254;23.102;2023-09-07T00:06:22;96176.84;;;20.08;68.60
71621;BME280;59471;42.254;23.102;2023-09-07T00:08:47;96172.66;;;20.12;68.43
71621;BME280;59471;42.254;23.102;2023-09-07T00:11:13;96159.97;;;20.14;68.15
71621;BME280;59471;42.254;23.102;2023-09-07T00:13:38;96164.56;;;20.07;68.12
71621;BME280;59471;42.254;23.102;2023-09-07T00:16:05;96164.81;;;20.06;68.32
71621;BME280;59471;42.254;23.102;2023-09-07T00:18:32;96167.47;;;20.06;68.33
71621;BME280;59471;42.254;23.102;2023-09-07T00:21:01;96169.06;;;20.07;68.25
71621;BME280;59471;42.254;23.102;2023-09-07T00:23:26;96172.31;;;20.09;68.16
71621;BME280;59471;42.254;23.102;2023-09-07T00:25:52;96164.44;;;20.02;67.79
71621;BME280;59471;42.254;23.102;2023-09-07T00:28:18;96159.34;;;20.01;68.35
71621;BME280;59471;42.254;23.102;2023-09-07T00:30:43;96157.75;;;20.11;67.89
71621;BME280;59471;42.254;23.102;2023-09-07T00:33:09;96157.63;;;20.06;68.26
71621;BME280;59471;42.254;23.102;2023-09-07T00:35:36;96160.41;;;20.11;67.42
71621;BME280;59471;42.254;23.102;2023-09-07T00:38:02;96152.53;;;20.17;66.83
71621;BME280;59471;42.254;23.102;2023-09-07T00:40:28;96157.53;;;20.25;66.65
71621;BME280;59471;42.254;23.102;2023-09-07T00:42:54;96158.09;;;20.27;66.42
71621;BME280;59471;42.254;23.102;2023-09-07T00:45:20;96158.56;;;20.24;66.38
71621;BME280;59471;42.254;23.102;2023-09-07T00:47:45;96164.47;;;20.26;66.79
71621;BME280;59471;42.254;23.102;2023-09-07T00:50:11;96168.03;;;20.20;66.56
71621;BME280;59471;42.254;23.102;2023-09-07T00:52:45;96160.44;;;20.35;65.75
71621;BME280;59471;42.254;23.102;2023-09-07T00:55:12;96164.25;;;20.27;66.26
71621;BME280;59471;42.254;23.102;2023-09-07T00:57:38;96163.63;;;20.13;67.14
71621;BME280;59471;42.254;23.102;2023-09-07T01:00:05;96156.94;;;20.23;66.77
71621;BME280;59471;42.254;23.102;2023-09-07T01:02:33;96160.97;;;20.13;67.36
71621;BME280;59471;42.254;23.102;2023-09-07T01:04:59;96161.91;;;20.07;67.56
71621;BME280;59471;42.254;23.102;2023-09-07T01:07:29;96156.03;;;20.05;67.54
71621;BME280;59471;42.254;23.102;2023-09-07T01:09:57;96152.78;;;20.03;67.45
71621;BME280;59471;42.254;23.102;2023-09-07T01:12:25;96156.94;;;19.99;68.16
71621;BME280;59471;42.254;23.102;2023-09-07T01:14:50;96145.91;;;19.84;68.64
71621;BME280;59471;42.254;23.102;2023-09-07T01:17:16;96145.31;;;19.82;68.73
71621;BME280;59471;42.254;23.102;2023-09-07T01:19:41;96151.63;;;19.99;68.39
71621;BME280;59471;42.254;23.102;2023-09-07T01:22:08;96145.03;;;20.13;67.81
71621;BME280;59471;42.254;23.102;2023-09-07T01:24:35;96148.94;;;20.11;67.71
71621;BME280;59471;42.254;23.102;2023-09-07T01:27:03;96142.00;;;19.98;68.35
71621;BME280;59471;42.254;23.102;2023-09-07T01:29:29;96147.66;;;19.90;68.03
71621;BME280;59471;42.254;23.102;2023-09-07T01:31:56;96149.28;;;19.91;68.32
71621;BME280;59471;42.254;23.102;2023-09-07T01:34:22;96148.13;;;19.87;68.40
71621;BME280;59471;42.254;23.102;2023-09-07T01:36:49;96148.25;;;20.04;68.44
71621;BME280;59471;42.254;23.102;2023-09-07T01:39:15;96156.22;;;20.04;68.36
71621;BME280;59471;42.254;23.102;2023-09-07T01:41:42;96153.69;;;19.97;68.80
71621;BME280;59471;42.254;23.102;2023-09-07T01:44:08;96159.09;;;19.90;68.87
71621;BME280;59471;42.254;23.102;2023-09-07T01:46:34;96160.34;;;19.76;69.42
71621;BME280;59471;42.254;23.102;2023-09-07T01:49:01;96163.94;;;19.82;69.35
71621;BME280;59471;42.254;23.102;2023-09-07T01:51:26;96157.13;;;19.86;68.61
71621;BME280;59471;42.254;23.102;2023-09-07T01:53:53;96157.25;;;19.91;69.07
71621;BME280;59471;42.254;23.102;2023-09-07T01:56:19;96158.06;;;19.80;69.69
71621;BME280;59471;42.254;23.102;2023-09-07T01:58:45;96148.47;;;19.60;69.61
71621;BME280;59471;42.254;23.102;2023-09-07T02:01:27;96154.56;;;19.67;69.66
71621;BME280;59471;42.254;23.102;2023-09-07T02:04:01;96156.75;;;19.71;70.21
71621;BME280;59471;42.254;23.102;2023-09-07T02:06:27;96167.03;;;19.79;69.61
71621;BME280;59471;42.254;23.102;2023-09-07T02:08:53;96166.03;;;19.80;69.68
71621;BME280;59471;42.254;23.102;2023-09-07T02:11:19;96162.69;;;19.96;69.32
71621;BME280;59471;42.254;23.102;2023-09-07T02:13:47;96168.47;;;19.93;69.82
71621;BME280;59471;42.254;23.102;2023-09-07T02:16:13;96168.69;;;19.80;70.88
71621;BME280;59471;42.254;23.102;2023-09-07T02:18:38;96175.34;;;19.71;72.15
71621;BME280;59471;42.254;23.102;2023-09-07T02:21:09;96180.22;;;19.74;72.80
71621;BME280;59471;42.254;23.102;2023-09-07T02:23:34;96181.13;;;19.67;73.89
71621;BME280;59471;42.254;23.102;2023-09-07T02:26:02;96191.22;;;19.59;74.69
71621;BME280;59471;42.254;23.102;2023-09-07T02:28:29;96188.66;;;19.52;76.01
71621;BME280;59471;42.254;23.102;2023-09-07T02:30:54;96187.47;;;19.48;76.42
71621;BME280;59471;42.254;23.102;2023-09-07T02:33:20;96180.69;;;19.52;76.78
71621;BME280;59471;42.254;23.102;2023-09-07T02:35:47;96184.69;;;19.43;77.25
71621;BME280;59471;42.254;23.102;2023-09-07T02:38:13;96178.97;;;19.28;77.94
71621;BME280;59471;42.254;23.102;2023-09-07T02:40:40;96169.53;;;19.13;78.32
71621;BME280;59471;42.254;23.102;2023-09-07T02:43:07;96182.06;;;19.25;77.98
71621;BME280;59471;42.254;23.102;2023-09-07T02:45:33;96176.03;;;19.17;78.97
71621;BME280;59471;42.254;23.102;2023-09-07T02:47:59;96166.06;;;18.94;80.59
71621;BME280;59471;42.254;23.102;2023-09-07T02:50:25;96171.91;;;19.03;79.70
71621;BME280;59471;42.254;23.102;2023-09-07T02:52:50;96173.09;;;18.89;80.37
71621;BME280;59471;42.254;23.102;2023-09-07T02:55:16;96178.09;;;18.79;81.24
71621;BME280;59471;42.254;23.102;2023-09-07T02:57:41;96179.13;;;18.78;81.13
71621;BME280;59471;42.254;23.102;2023-09-07T03:00:07;96183.09;;;18.87;81.07
71621;BME280;59471;42.254;23.102;2023-09-07T03:02:36;96181.78;;;18.78;80.80
71621;BME280;59471;42.254;23.102;2023-09-07T03:05:02;96184.28;;;18.72;81.46
71621;BME280;59471;42.254;23.102;2023-09-07T03:07:32;96183.50;;;18.65;81.72
71621;BME280;59471;42.254;23.102;2023-09-07T03:09:58;96192.69;;;18.88;81.50
71621;BME280;59471;42.254;23.102;2023-09-07T03:12:24;96185.91;;;18.92;81.48
71621;BME280;59471;42.254;23.102;2023-09-07T03:14:49;96195.78;;;18.85;82.78
71621;BME280;59471;42.254;23.102;2023-09-07T03:17:16;96196.75;;;18.65;84.24
71621;BME280;59471;42.254;23.102;2023-09-07T03:19:42;96194.03;;;18.72;85.05
71621;BME280;59471;42.254;23.102;2023-09-07T03:22:08;96196.13;;;18.70;84.54
71621;BME280;59471;42.254;23.102;2023-09-07T03:24:35;96196.47;;;18.55;85.47
71621;BME280;59471;42.254;23.102;2023-09-07T03:27:00;96191.00;;;18.50;86.10
71621;BME280;59471;42.254;23.102;2023-09-07T03:29:26;96177.59;;;18.45;86.51
71621;BME280;59471;42.254;23.102;2023-09-07T03:31:51;96194.69;;;18.49;87.55
71621;BME280;59471;42.254;23.102;2023-09-07T03:34:17;96192.91;;;18.43;87.62
71621;BME280;59471;42.254;23.102;2023-09-07T03:36:42;96200.00;;;18.49;87.70
71621;BME280;59471;42.254;23.102;2023-09-07T03:39:08;96195.34;;;18.44;87.46
71621;BME280;59471;42.254;23.102;2023-09-07T03:41:34;96198.44;;;18.41;87.92
71621;BME280;59471;42.254;23.102;2023-09-07T03:44:00;96191.28;;;18.42;88.27
71621;BME280;59471;42.254;23.102;2023-09-07T03:46:28;96191.13;;;18.37;87.30
71621;BME280;59471;42.254;23.102;2023-09-07T03:48:54;96184.81;;;18.56;87.93
71621;BME280;59471;42.254;23.102;2023-09-07T03:51:19;96187.69;;;18.55;85.48
71621;BME280;59471;42.254;23.102;2023-09-07T03:53:45;96183.63;;;18.52;85.28
71621;BME280;59471;42.254;23.102;2023-09-07T03:56:10;96182.41;;;18.55;85.08
71621;BME280;59471;42.254;23.102;2023-09-07T03:58:36;96183.19;;;18.55;84.70
71621;BME280;59471;42.254;23.102;2023-09-07T04:01:02;96183.03;;;18.50;85.51
71621;BME280;59471;42.254;23.102;2023-09-07T04:03:27;96186.41;;;18.39;86.58
71621;BME280;59471;42.254;23.102;2023-09-07T04:05:53;96181.84;;;18.46;84.51
71621;BME280;59471;42.254;23.102;2023-09-07T04:08:18;96177.53;;;18.51;85.00
71621;BME280;59471;42.254;23.102;2023-09-07T04:10:44;96186.03;;;18.60;85.39
71621;BME280;59471;42.254;23.102;2023-09-07T04:13:09;96193.00;;;18.55;85.32
71621;BME280;59471;42.254;23.102;2023-09-07T04:15:42;96189.69;;;18.59;85.71
71621;BME280;59471;42.254;23.102;2023-09-07T04:18:09;96189.97;;;18.51;86.25
71621;BME280;59471;42.254;23.102;2023-09-07T04:20:38;96189.81;;;18.46;86.03
71621;BME280;59471;42.254;23.102;2023-09-07T04:23:04;96192.69;;;18.44;86.87
71621;BME280;59471;42.254;23.102;2023-09-07T04:25:30;96189.50;;;18.36;84.88
71621;BME280;59471;42.254;23.102;2023-09-07T04:27:55;96195.50;;;18.49;85.86
71621;BME280;59471;42.254;23.102;2023-09-07T04:30:22;96191.88;;;18.44;85.88
71621;BME280;59471;42.254;23.102;2023-09-07T04:32:48;96197.16;;;18.44;86.27
71621;BME280;59471;42.254;23.102;2023-09-07T04:35:13;96206.91;;;18.50;86.40
71621;BME280;59471;42.254;23.102;2023-09-07T04:37:42;96214.72;;;18.45;86.78
71621;BME280;59471;42.254;23.102;2023-09-07T04:40:08;96214.38;;;18.60;85.50
71621;BME280;59471;42.254;23.102;2023-09-07T04:42:35;96222.72;;;18.63;85.99
71621;BME280;59471;42.254;23.102;2023-09-07T04:45:01;96229.19;;;18.67;85.29
71621;BME280;59471;42.254;23.102;2023-09-07T04:47:27;96228.13;;;18.50;86.50
71621;BME280;59471;42.254;23.102;2023-09-07T04:49:53;96234.63;;;18.54;85.91
71621;BME280;59471;42.254;23.102;2023-09-07T04:52:18;96236.56;;;18.65;85.49
71621;BME280;59471;42.254;23.102;2023-09-07T04:54:44;96233.75;;;18.60;85.55
71621;BME280;59471;42.254;23.102;2023-09-07T04:57:10;96234.13;;;18.64;85.94
71621;BME280;59471;42.254;23.102;2023-09-07T04:59:37;96239.59;;;18.69;86.53
71621;BME280;59471;42.254;23.102;2023-09-07T05:02:03;96237.22;;;18.86;86.00
71621;BME280;59471;42.254;23.102;2023-09-07T05:04:28;96238.41;;;18.90;85.68
71621;BME280;59471;42.254;23.102;2023-09-07T05:06:55;96242.53;;;18.86;84.73
71621;BME280;59471;42.254;23.102;2023-09-07T05:09:21;96244.59;;;18.84;85.22
71621;BME280;59471;42.254;23.102;2023-09-07T05:11:48;96244.94;;;18.87;85.37
71621;BME280;59471;42.254;23.102;2023-09-07T05:14:14;96250.19;;;18.94;84.90
71621;BME280;59471;42.254;23.102;2023-09-07T05:16:42;96256.56;;;19.11;84.46
71621;BME280;59471;42.254;23.102;2023-09-07T05:19:09;96259.94;;;19.00;85.04
71621;BME280;59471;42.254;23.102;2023-09-07T05:21:34;96257.44;;;19.05;85.40
71621;BME280;59471;42.254;23.102;2023-09-07T05:24:00;96248.31;;;19.01;84.35
71621;BME280;59471;42.254;23.102;2023-09-07T05:26:25;96243.56;;;19.03;85.24
71621;BME280;59471;42.254;23.102;2023-09-07T05:28:51;96253.22;;;19.16;85.77
71621;BME280;59471;42.254;23.102;2023-09-07T05:31:17;96252.41;;;19.15;85.72
71621;BME280;59471;42.254;23.102;2023-09-07T05:33:42;96253.81;;;18.99;86.43
71621;BME280;59471;42.254;23.102;2023-09-07T05:36:08;96255.81;;;19.04;85.10
71621;BME280;59471;42.254;23.102;2023-09-07T05:38:33;96250.81;;;19.14;84.04
71621;BME280;59471;42.254;23.102;2023-09-07T05:40:59;96251.00;;;19.31;82.89
71621;BME280;59471;42.254;23.102;2023-09-07T05:43:25;96256.69;;;19.35;84.52
71621;BME280;59471;42.254;23.102;2023-09-07T05:45:51;96247.84;;;19.22;82.40
71621;BME280;59471;42.254;23.102;2023-09-07T05:48:16;96248.06;;;19.39;82.61
71621;BME280;59471;42.254;23.102;2023-09-07T05:50:42;96247.81;;;19.59;80.67
71621;BME280;59471;42.254;23.102;2023-09-07T05:53:08;96248.88;;;19.40;80.31
71621;BME280;59471;42.254;23.102;2023-09-07T05:55:34;96240.91;;;19.21;81.76
71621;BME280;59471;42.254;23.102;2023-09-07T05:57:59;96244.00;;;19.55;80.18
71621;BME280;59471;42.254;23.102;2023-09-07T06:00:28;96258.00;;;19.62;78.52
71621;BME280;59471;42.254;23.102;2023-09-07T06:02:54;96263.63;;;19.73;76.77
71621;BME280;59471;42.254;23.102;2023-09-07T06:05:19;96267.13;;;19.85;77.93
71621;BME280;59471;42.254;23.102;2023-09-07T06:07:45;96267.84;;;19.92;76.17
71621;BME280;59471;42.254;23.102;2023-09-07T06:10:11;96269.84;;;19.97;75.22
71621;BME280;59471;42.254;23.102;2023-09-07T06:12:36;96266.03;;;19.93;75.52
71621;BME280;59471;42.254;23.102;2023-09-07T06:15:02;96271.19;;;20.18;75.37
71621;BME280;59471;42.254;23.102;2023-09-07T06:17:29;96254.50;;;20.10;75.45
71621;BME280;59471;42.254;23.102;2023-09-07T06:19:55;96261.66;;;20.10;74.75
71621;BME280;59471;42.254;23.102;2023-09-07T06:22:21;96262.19;;;20.42;73.07
71621;BME280;59471;42.254;23.102;2023-09-07T06:24:47;96255.03;;;20.31;74.11
71621;BME280;59471;42.254;23.102;2023-09-07T06:27:12;96261.81;;;20.15;74.73
71621;BME280;59471;42.254;23.102;2023-09-07T06:29:38;96258.09;;;20.16;74.50
71621;BME280;59471;42.254;23.102;2023-09-07T06:32:03;96252.81;;;20.28;73.95
71621;BME280;59471;42.254;23.102;2023-09-07T06:34:29;96252.47;;;20.36;71.42
71621;BME280;59471;42.254;23.102;2023-09-07T06:36:55;96257.00;;;20.35;72.87
71621;BME280;59471;42.254;23.102;2023-09-07T06:39:20;96257.94;;;20.41;72.50
71621;BME280;59471;42.254;23.102;2023-09-07T06:41:46;96260.75;;;20.58;73.55
71621;BME280;59471;42.254;23.102;2023-09-07T06:44:12;96254.22;;;20.42;73.87
71621;BME280;59471;42.254;23.102;2023-09-07T06:46:39;96264.47;;;20.69;74.03
71621;BME280;59471;42.254;23.102;2023-09-07T06:49:05;96267.53;;;20.42;72.44
71621;BME280;59471;42.254;23.102;2023-09-07T06:51:31;96270.94;;;20.73;73.06
71621;BME280;59471;42.254;23.102;2023-09-07T06:53:56;96265.03;;;20.71;71.95
71621;BME280;59471;42.254;23.102;2023-09-07T06:56:22;96276.50;;;21.06;72.53
71621;BME280;59471;42.254;23.102;2023-09-07T06:58:48;96278.78;;;21.26;69.87
71621;BME280;59471;42.254;23.102;2023-09-07T07:01:13;96265.50;;;20.91;68.30
71621;BME280;59471;42.254;23.102;2023-09-07T07:03:39;96263.78;;;20.97;69.01
71621;BME280;59471;42.254;23.102;2023-09-07T07:06:04;96267.34;;;21.02;68.89
71621;BME280;59471;42.254;23.102;2023-09-07T07:08:30;96266.19;;;20.98;68.38
71621;BME280;59471;42.254;23.102;2023-09-07T07:10:55;96258.56;;;21.14;69.34
71621;BME280;59471;42.254;23.102;2023-09-07T07:13:21;96262.34;;;21.18;68.81
71621;BME280;59471;42.254;23.102;2023-09-07T07:15:46;96259.25;;;20.86;68.79
71621;BME280;59471;42.254;23.102;2023-09-07T07:18:12;96251.97;;;21.04;67.89
71621;BME280;59471;42.254;23.102;2023-09-07T07:20:39;96255.22;;;21.06;66.85
71621;BME280;59471;42.254;23.102;2023-09-07T07:23:05;96254.84;;;21.15;68.03
71621;BME280;59471;42.254;23.102;2023-09-07T07:25:33;96253.09;;;21.20;66.95
71621;BME280;59471;42.254;23.102;2023-09-07T07:28:00;96260.63;;;21.35;68.08
71621;BME280;59471;42.254;23.102;2023-09-07T07:30:27;96259.09;;;21.39;67.33
71621;BME280;59471;42.254;23.102;2023-09-07T07:32:55;96271.34;;;21.64;67.57
71621;BME280;59471;42.254;23.102;2023-09-07T07:35:21;96277.47;;;21.93;66.62
71621;BME280;59471;42.254;23.102;2023-09-07T07:37:46;96270.97;;;22.01;64.26
71621;BME280;59471;42.254;23.102;2023-09-07T07:40:12;96276.56;;;21.59;64.98
71621;BME280;59471;42.254;23.102;2023-09-07T07:42:38;96278.38;;;21.70;64.83
71621;BME280;59471;42.254;23.102;2023-09-07T07:45:04;96275.28;;;21.90;63.85
71621;BME280;59471;42.254;23.102;2023-09-07T07:47:30;96271.84;;;22.18;62.86
71621;BME280;59471;42.254;23.102;2023-09-07T07:49:55;96269.16;;;22.18;63.60
71621;BME280;59471;42.254;23.102;2023-09-07T07:52:21;96272.41;;;22.54;61.89
71621;BME280;59471;42.254;23.102;2023-09-07T07:54:47;96276.97;;;22.70;61.84
71621;BME280;59471;42.254;23.102;2023-09-07T07:57:12;96271.69;;;22.75;63.44
71621;BME280;59471;42.254;23.102;2023-09-07T07:59:38;96265.81;;;22.73;61.40
71621;BME280;59471;42.254;23.102;2023-09-07T08:02:03;96276.41;;;22.68;61.25
71621;BME280;59471;42.254;23.102;2023-09-07T08:04:31;96273.72;;;22.68;62.87
71621;BME280;59471;42.254;23.102;2023-09-07T08:06:58;96273.41;;;22.81;60.48
71621;BME280;59471;42.254;23.102;2023-09-07T08:09:29;96273.63;;;22.63;63.01
71621;BME280;59471;42.254;23.102;2023-09-07T08:11:55;96269.91;;;22.81;62.23
71621;BME280;59471;42.254;23.102;2023-09-07T08:14:22;96264.25;;;22.94;62.26
71621;BME280;59471;42.254;23.102;2023-09-07T08:16:49;96271.94;;;22.90;62.20
71621;BME280;59471;42.254;23.102;2023-09-07T08:19:14;96274.84;;;22.72;61.34
71621;BME280;59471;42.254;23.102;2023-09-07T08:21:40;96269.50;;;23.06;60.98
71621;BME280;59471;42.254;23.102;2023-09-07T08:24:08;96266.44;;;22.80;57.82
71621;BME280;59471;42.254;23.102;2023-09-07T08:26:35;96267.06;;;23.04;55.17
71621;BME280;59471;42.254;23.102;2023-09-07T08:29:01;96261.25;;;22.90;54.88
71621;BME280;59471;42.254;23.102;2023-09-07T08:31:37;96260.59;;;23.17;52.36
71621;BME280;59471;42.254;23.102;2023-09-07T08:34:07;96262.41;;;23.33;54.72
71621;BME280;59471;42.254;23.102;2023-09-07T08:36:36;96263.03;;;23.41;55.74
71621;BME280;59471;42.254;23.102;2023-09-07T08:39:03;96270.38;;;23.50;56.82
71621;BME280;59471;42.254;23.102;2023-09-07T08:41:42;96285.09;;;23.53;55.56
71621;BME280;59471;42.254;23.102;2023-09-07T08:44:11;96277.38;;;23.34;57.40
71621;BME280;59471;42.254;23.102;2023-09-07T08:46:40;96284.19;;;23.25;57.98
71621;BME280;59471;42.254;23.102;2023-09-07T08:49:06;96273.16;;;23.00;59.62
71621;BME280;59471;42.254;23.102;2023-09-07T08:51:32;96270.31;;;22.73;56.85
71621;BME280;59471;42.254;23.102;2023-09-07T08:53:58;96275.00;;;23.16;59.24
71621;BME280;59471;42.254;23.102;2023-09-07T08:56:24;96269.94;;;23.36;57.68
71621;BME280;59471;42.254;23.102;2023-09-07T08:58:50;96276.13;;;23.64;57.03
71621;BME280;59471;42.254;23.102;2023-09-07T09:01:19;96269.31;;;23.73;54.63
71621;BME280;59471;42.254;23.102;2023-09-07T09:03:49;96270.97;;;23.74;52.28
71621;BME280;59471;42.254;23.102;2023-09-07T09:06:20;96259.25;;;23.80;50.79
71621;BME280;59471;42.254;23.102;2023-09-07T09:08:55;96258.75;;;23.84;50.06
71621;BME280;59471;42.254;23.102;2023-09-07T09:11:23;96260.47;;;23.95;49.56
71621;BME280;59471;42.254;23.102;2023-09-07T09:13:52;96256.78;;;24.01;47.90
71621;BME280;59471;42.254;23.102;2023-09-07T09:16:18;96263.44;;;23.71;49.17
71621;BME280;59471;42.254;23.102;2023-09-07T09:18:56;96249.91;;;23.83;47.43
71621;BME280;59471;42.254;23.102;2023-09-07T09:21:24;96248.56;;;23.80;47.22
71621;BME280;59471;42.254;23.102;2023-09-07T09:23:53;96247.00;;;23.85;50.47
71621;BME280;59471;42.254;23.102;2023-09-07T09:26:20;96252.50;;;24.00;48.27
71621;BME280;59471;42.254;23.102;2023-09-07T09:28:46;96241.72;;;23.90;48.82
71621;BME280;59471;42.254;23.102;2023-09-07T09:31:13;96252.44;;;23.95;49.79
71621;BME280;59471;42.254;23.102;2023-09-07T09:33:44;96254.00;;;23.91;47.03
71621;BME280;59471;42.254;23.102;2023-09-07T09:36:13;96252.28;;;23.79;50.40
71621;BME280;59471;42.254;23.102;2023-09-07T09:38:39;96262.91;;;23.96;48.82
71621;BME280;59471;42.254;23.102;2023-09-07T09:41:06;96261.38;;;23.78;50.81
71621;BME280;59471;42.254;23.102;2023-09-07T09:43:31;96262.28;;;23.89;47.88
71621;BME280;59471;42.254;23.102;2023-09-07T09:45:59;96265.16;;;23.82;48.72
71621;BME280;59471;42.254;23.102;2023-09-07T09:48:27;96258.06;;;23.93;49.43
71621;BME280;59471;42.254;23.102;2023-09-07T09:50:52;96277.03;;;23.92;48.41
71621;BME280;59471;42.254;23.102;2023-09-07T09:53:19;96270.66;;;23.98;48.36
71621;BME280;59471;42.254;23.102;2023-09-07T09:55:49;96260.72;;;23.93;48.70
71621;BME280;59471;42.254;23.102;2023-09-07T09:58:18;96260.06;;;24.08;48.29
71621;BME280;59471;42.254;23.102;2023-09-07T10:00:50;96262.72;;;24.08;47.64
71621;BME280;59471;42.254;23.102;2023-09-07T10:03:22;96259.56;;;24.11;48.04
71621;BME280;59471;42.254;23.102;2023-09-07T10:05:55;96247.94;;;24.27;47.76
71621;BME280;59471;42.254;23.102;2023-09-07T10:08:21;96240.50;;;24.35;46.66
71621;BME280;59471;42.254;23.102;2023-09-07T10:10:53;96244.91;;;24.46;46.33
71621;BME280;59471;42.254;23.102;2023-09-07T10:13:30;96242.69;;;24.38;47.48
71621;BME280;59471;42.254;23.102;2023-09-07T10:16:03;96242.78;;;24.48;46.48
71621;BME280;59471;42.254;23.102;2023-09-07T10:18:38;96240.75;;;24.60;45.66
71621;BME280;59471;42.254;23.102;2023-09-07T10:21:05;96235.97;;;24.67;44.99
71621;BME280;59471;42.254;23.102;2023-09-07T10:23:39;96230.16;;;24.76;46.18
71621;BME280;59471;42.254;23.102;2023-09-07T10:26:05;96237.22;;;24.92;46.50
71621;BME280;59471;42.254;23.102;2023-09-07T10:28:36;96214.69;;;24.88;45.79
71621;BME280;59471;42.254;23.102;2023-09-07T10:31:02;96222.06;;;24.65;44.99
71621;BME280;59471;42.254;23.102;2023-09-07T10:33:30;96219.44;;;24.81;45.70
71621;BME280;59471;42.254;23.102;2023-09-07T10:35:57;96236.06;;;24.83;46.67
71621;BME280;59471;42.254;23.102;2023-09-07T10:38:23;96220.63;;;24.95;44.27
71621;BME280;59471;42.254;23.102;2023-09-07T10:40:55;96226.94;;;24.79;44.86
71621;BME280;59471;42.254;23.102;2023-09-07T10:43:28;96235.06;;;24.89;45.78
71621;BME280;59471;42.254;23.102;2023-09-07T10:45:59;96226.22;;;24.88;44.95
71621;BME280;59471;42.254;23.102;2023-09-07T10:48:28;96220.44;;;25.07;44.50
71621;BME280;59471;42.254;23.102;2023-09-07T10:50:54;96213.25;;;25.17;44.28
71621;BME280;59471;42.254;23.102;2023-09-07T10:53:29;96219.63;;;25.11;44.21
71621;BME280;59471;42.254;23.102;2023-09-07T10:56:05;96221.66;;;24.89;42.94
71621;BME280;59471;42.254;23.102;2023-09-07T10:58:32;96214.53;;;24.67;43.85
71621;BME280;59471;42.254;23.102;2023-09-07T11:00:59;96224.78;;;24.76;43.80
71621;BME280;59471;42.254;23.102;2023-09-07T11:03:27;96209.75;;;24.69;44.36
71621;BME280;59471;42.254;23.102;2023-09-07T11:05:55;96221.06;;;24.82;44.57
71621;BME280;59471;42.254;23.102;2023-09-07T11:08:24;96214.97;;;24.91;42.23
71621;BME280;59471;42.254;23.102;2023-09-07T11:10:51;96221.09;;;24.87;43.37
71621;BME280;59471;42.254;23.102;2023-09-07T11:13:17;96215.78;;;24.92;43.19
71621;BME280;59471;42.254;23.102;2023-09-07T11:15:43;96210.47;;;25.02;42.08
71621;BME280;59471;42.254;23.102;2023-09-07T11:18:09;96199.06;;;24.74;43.37
71621;BME280;59471;42.254;23.102;2023-09-07T11:20:36;96207.66;;;24.77;42.79
71621;BME280;59471;42.254;23.102;2023-09-07T11:23:02;96208.44;;;24.72;43.11
71621;BME280;59471;42.254;23.102;2023-09-07T11:25:38;96212.94;;;24.66;42.97
71621;BME280;59471;42.254;23.102;2023-09-07T11:28:05;96203.09;;;24.77;42.40
71621;BME280;59471;42.254;23.102;2023-09-07T11:30:32;96205.28;;;24.85;42.41
71621;BME280;59471;42.254;23.102;2023-09-07T11:33:06;96201.81;;;24.85;43.34
71621;BME280;59471;42.254;23.102;2023-09-07T11:35:34;96208.34;;;25.04;43.28
71621;BME280;59471;42.254;23.102;2023-09-07T11:38:00;96204.19;;;25.24;42.17
71621;BME280;59471;42.254;23.102;2023-09-07T11:40:29;96204.13;;;25.18;41.98
71621;BME280;59471;42.254;23.102;2023-09-07T11:42:57;96206.59;;;25.25;41.60
71621;BME280;59471;42.254;23.102;2023-09-07T11:45:23;96199.81;;;25.12;42.09
71621;BME280;59471;42.254;23.102;2023-09-07T11:47:49;96191.22;;;25.10;42.75
71621;BME280;59471;42.254;23.102;2023-09-07T11:50:18;96197.16;;;25.12;42.47
71621;BME280;59471;42.254;23.102;2023-09-07T11:52:45;96191.84;;;25.23;41.90
71621;BME280;59471;42.254;23.102;2023-09-07T11:55:11;96188.00;;;25.08;42.18
71621;BME280;59471;42.254;23.102;2023-09-07T11:57:38;96194.91;;;24.94;43.18
71621;BME280;59471;42.254;23.102;2023-09-07T12:00:04;96190.13;;;25.06;42.43
71621;BME280;59471;42.254;23.102;2023-09-07T12:02:30;96185.31;;;25.03;42.02
71621;BME280;59471;42.254;23.102;2023-09-07T12:04:56;96185.50;;;24.96;42.95
71621;BME280;59471;42.254;23.102;2023-09-07T12:07:21;96180.50;;;25.10;42.58
71621;BME280;59471;42.254;23.102;2023-09-07T12:09:47;96189.09;;;25.12;44.45
71621;BME280;59471;42.254;23.102;2023-09-07T12:12:13;96188.41;;;25.32;42.15
71621;BME280;59471;42.254;23.102;2023-09-07T12:14:39;96200.97;;;25.27;42.30
71621;BME280;59471;42.254;23.102;2023-09-07T12:17:04;96191.06;;;25.27;41.37
71621;BME280;59471;42.254;23.102;2023-09-07T12:19:30;96192.38;;;25.25;42.70
71621;BME280;59471;42.254;23.102;2023-09-07T12:21:56;96189.72;;;25.30;41.95
71621;BME280;59471;42.254;23.102;2023-09-07T12:24:21;96191.41;;;25.41;41.62
71621;BME280;59471;42.254;23.102;2023-09-07T12:26:47;96203.16;;;25.35;41.42
71621;BME280;59471;42.254;23.102;2023-09-07T12:29:12;96199.91;;;25.23;41.43
71621;BME280;59471;42.254;23.102;2023-09-07T12:31:38;96193.81;;;24.95;41.39
71621;BME280;59471;42.254;23.102;2023-09-07T12:34:04;96185.75;;;24.85;42.02
71621;BME280;59471;42.254;23.102;2023-09-07T12:36:30;96198.63;;;24.88;42.47
71621;BME280;59471;42.254;23.102;2023-09-07T12:38:56;96194.88;;;24.89;42.33
71621;BME280;59471;42.254;23.102;2023-09-07T12:41:29;96196.50;;;24.95;42.76
71621;BME280;59471;42.254;23.102;2023-09-07T12:43:55;96197.50;;;24.84;42.51
71621;BME280;59471;42.254;23.102;2023-09-07T12:46:21;96192.09;;;24.73;43.09
71621;BME280;59471;42.254;23.102;2023-09-07T12:48:47;96197.63;;;24.62;42.89